Cuivre River (Missouri), Troy (05514500)

StateMissouriLatestGood (521 cfs)
RiverCuivre RiverRatingObservedEstimated
Updated2026-05-02 11:00 (33 minutes ago)Flood - The river is flooding. Obstacles can be treacherous or deadly. The river should be avoided at this stage for casual trips and definitely for the inexperienced. Trips should be attempted only with protective gear and equipment.Flood(none)2680
Discharge521 cfs (median: 290 cfs)High - The river is high and potentially dangerous, especially for the young and / or inexperienced. Normal stream obstacles are sometimes difficult to navigate. Extended distances can be attempted, but canoe travel may not be advisable.High(none)718
Height7.13 feetGood - Conditions are ideal for a canoe or kayak. Boats typically will drag on fewer than one-quarter of riffles, if at all, and portages are unnecessary or rare. Normal float lengths can be attempted without a problem.Good(none)216
TrendSteady (falling over 24 hours)Low - River is low but can still be floated. Some riffles are okay but most come with significant dragging and might need a portage. Float lengths should be reduced to accommodate low flow, dragging, and portages.Low(none)132
USGSExternal icon USGS Site (External icon Duck Duck Go Maps)Poor - River is too low to float comfortably. Most or all riffles will drag or must be portaged and some obstacles (such as slick shelf rock) cause undue problems. Avoid the river at this stage for casual paddling trips.Poor(none)34

Trending Data

Plot Image

Trips for Cuivre River (Missouri), Troy (05514500)

DateStartEndDistanceConditionDischargeHeightFishingDetails

A total of 0 rows are displayed.

Condition Descriptions

Fishing Conditions

Fish Species

Notes

Classic Trip List

The classic River Trips application is still available for use. It is updated with the new system using a data retrofit. It is no longer maintained. The original River Trips application is no longer updated (as of 1 Dec 2016) but can be checked for errors or for the condition of the data before it was converted to the new system.

Gauge Data Table

ObservationHeightDischargeMaximum
Discharge
Minimum
Discharge
Mean
Discharge
P05P10P20P25P50
(Median)
P75P80P90P95
2026-05-02 11:00 7.13 521 41300 (1983) 17 (2000) 1660 44 66 112 125 290 905 1130 4380 10100
2026-05-02 10:30 7.13 521 41300 (1983) 17 (2000) 1660 44 66 112 125 290 905 1130 4380 10100
2026-05-02 10:00 7.14 526 41300 (1983) 17 (2000) 1660 44 66 112 125 290 905 1130 4380 10100
2026-05-02 09:30 7.14 526 41300 (1983) 17 (2000) 1660 44 66 112 125 290 905 1130 4380 10100
2026-05-02 09:00 7.15 531 41300 (1983) 17 (2000) 1660 44 66 112 125 290 905 1130 4380 10100
2026-05-02 08:30 7.16 535 41300 (1983) 17 (2000) 1660 44 66 112 125 290 905 1130 4380 10100
2026-05-02 08:00 7.17 540 41300 (1983) 17 (2000) 1660 44 66 112 125 290 905 1130 4380 10100
2026-05-02 07:30 7.17 540 41300 (1983) 17 (2000) 1660 44 66 112 125 290 905 1130 4380 10100
2026-05-02 07:00 7.18 544 41300 (1983) 17 (2000) 1660 44 66 112 125 290 905 1130 4380 10100
2026-05-02 06:30 7.19 549 41300 (1983) 17 (2000) 1660 44 66 112 125 290 905 1130 4380 10100
2026-05-02 06:00 7.20 554 41300 (1983) 17 (2000) 1660 44 66 112 125 290 905 1130 4380 10100
2026-05-02 05:30 7.20 554 41300 (1983) 17 (2000) 1660 44 66 112 125 290 905 1130 4380 10100
2026-05-02 05:00 7.21 559 41300 (1983) 17 (2000) 1660 44 66 112 125 290 905 1130 4380 10100
2026-05-02 04:30 7.22 563 41300 (1983) 17 (2000) 1660 44 66 112 125 290 905 1130 4380 10100
2026-05-02 04:00 7.23 568 41300 (1983) 17 (2000) 1660 44 66 112 125 290 905 1130 4380 10100
2026-05-02 03:30 7.23 568 41300 (1983) 17 (2000) 1660 44 66 112 125 290 905 1130 4380 10100
2026-05-02 03:00 7.24 573 41300 (1983) 17 (2000) 1660 44 66 112 125 290 905 1130 4380 10100
2026-05-02 02:30 7.24 573 41300 (1983) 17 (2000) 1660 44 66 112 125 290 905 1130 4380 10100
2026-05-02 02:00 7.25 578 41300 (1983) 17 (2000) 1660 44 66 112 125 290 905 1130 4380 10100
2026-05-02 01:30 7.26 583 41300 (1983) 17 (2000) 1660 44 66 112 125 290 905 1130 4380 10100
2026-05-02 01:00 7.27 588 41300 (1983) 17 (2000) 1660 44 66 112 125 290 905 1130 4380 10100
2026-05-02 00:30 7.28 592 41300 (1983) 17 (2000) 1660 44 66 112 125 290 905 1130 4380 10100
2026-05-02 00:00 7.28 592 41300 (1983) 17 (2000) 1660 44 66 112 125 290 905 1130 4380 10100
2026-05-01 23:30 7.29 597 41300 (1983) 17 (2000) 1660 44 66 112 125 290 905 1130 4380 10100
2026-05-01 23:00 7.30 602 41300 (1983) 17 (2000) 1660 44 66 112 125 290 905 1130 4380 10100
2026-05-01 22:30 7.30 602 30300 (2019) 19 (2000) 1800 49 64 113 129 265 1060 1650 2660 9740
2026-05-01 22:00 7.31 607 30300 (2019) 19 (2000) 1800 49 64 113 129 265 1060 1650 2660 9740
2026-05-01 21:30 7.32 612 30300 (2019) 19 (2000) 1800 49 64 113 129 265 1060 1650 2660 9740
2026-05-01 21:00 7.33 617 30300 (2019) 19 (2000) 1800 49 64 113 129 265 1060 1650 2660 9740
2026-05-01 20:30 7.33 617 30300 (2019) 19 (2000) 1800 49 64 113 129 265 1060 1650 2660 9740
2026-05-01 20:00 7.34 622 30300 (2019) 19 (2000) 1800 49 64 113 129 265 1060 1650 2660 9740
2026-05-01 19:30 7.35 627 30300 (2019) 19 (2000) 1800 49 64 113 129 265 1060 1650 2660 9740
2026-05-01 19:00 7.36 633 30300 (2019) 19 (2000) 1800 49 64 113 129 265 1060 1650 2660 9740
2026-05-01 18:30 7.36 633 30300 (2019) 19 (2000) 1800 49 64 113 129 265 1060 1650 2660 9740
2026-05-01 18:00 7.38 643 30300 (2019) 19 (2000) 1800 49 64 113 129 265 1060 1650 2660 9740
2026-05-01 17:30 7.39 648 30300 (2019) 19 (2000) 1800 49 64 113 129 265 1060 1650 2660 9740
2026-05-01 17:00 7.39 648 30300 (2019) 19 (2000) 1800 49 64 113 129 265 1060 1650 2660 9740
2026-05-01 16:30 7.39 648 30300 (2019) 19 (2000) 1800 49 64 113 129 265 1060 1650 2660 9740
2026-05-01 16:00 7.41 658 30300 (2019) 19 (2000) 1800 49 64 113 129 265 1060 1650 2660 9740
2026-05-01 15:30 7.42 664 30300 (2019) 19 (2000) 1800 49 64 113 129 265 1060 1650 2660 9740
2026-05-01 15:00 7.44 674 30300 (2019) 19 (2000) 1800 49 64 113 129 265 1060 1650 2660 9740
2026-05-01 14:30 7.41 658 30300 (2019) 19 (2000) 1800 49 64 113 129 265 1060 1650 2660 9740
2026-05-01 14:00 7.45 680 30300 (2019) 19 (2000) 1800 49 64 113 129 265 1060 1650 2660 9740
2026-05-01 13:30 7.47 690 30300 (2019) 19 (2000) 1800 49 64 113 129 265 1060 1650 2660 9740
2026-05-01 13:00 7.47 690 30300 (2019) 19 (2000) 1800 49 64 113 129 265 1060 1650 2660 9740
2026-05-01 12:30 7.48 696 30300 (2019) 19 (2000) 1800 49 64 113 129 265 1060 1650 2660 9740
2026-05-01 12:00 7.50 706 30300 (2019) 19 (2000) 1800 49 64 113 129 265 1060 1650 2660 9740
2026-05-01 11:30 7.50 706 30300 (2019) 19 (2000) 1800 49 64 113 129 265 1060 1650 2660 9740
2026-05-01 11:00 7.52 717 30300 (2019) 19 (2000) 1800 49 64 113 129 265 1060 1650 2660 9740
2026-05-01 10:30 7.52 717 30300 (2019) 19 (2000) 1800 49 64 113 129 265 1060 1650 2660 9740
2026-05-01 10:00 7.54 729 30300 (2019) 19 (2000) 1800 49 64 113 129 265 1060 1650 2660 9740
2026-05-01 09:30 7.54 729 30300 (2019) 19 (2000) 1800 49 64 113 129 265 1060 1650 2660 9740
2026-05-01 09:00 7.56 740 30300 (2019) 19 (2000) 1800 49 64 113 129 265 1060 1650 2660 9740
2026-05-01 08:30 7.57 745 30300 (2019) 19 (2000) 1800 49 64 113 129 265 1060 1650 2660 9740
2026-05-01 08:00 7.58 751 30300 (2019) 19 (2000) 1800 49 64 113 129 265 1060 1650 2660 9740
2026-05-01 07:30 7.59 757 30300 (2019) 19 (2000) 1800 49 64 113 129 265 1060 1650 2660 9740
2026-05-01 07:00 7.60 762 30300 (2019) 19 (2000) 1800 49 64 113 129 265 1060 1650 2660 9740
2026-05-01 06:30 7.62 774 30300 (2019) 19 (2000) 1800 49 64 113 129 265 1060 1650 2660 9740
2026-05-01 06:00 7.63 780 30300 (2019) 19 (2000) 1800 49 64 113 129 265 1060 1650 2660 9740
2026-05-01 05:30 7.64 785 30300 (2019) 19 (2000) 1800 49 64 113 129 265 1060 1650 2660 9740
2026-05-01 05:00 7.65 791 30300 (2019) 19 (2000) 1800 49 64 113 129 265 1060 1650 2660 9740
2026-05-01 04:30 7.66 797 30300 (2019) 19 (2000) 1800 49 64 113 129 265 1060 1650 2660 9740
2026-05-01 04:00 7.68 809 30300 (2019) 19 (2000) 1800 49 64 113 129 265 1060 1650 2660 9740
2026-05-01 03:30 7.69 815 30300 (2019) 19 (2000) 1800 49 64 113 129 265 1060 1650 2660 9740
2026-05-01 03:00 7.70 821 30300 (2019) 19 (2000) 1800 49 64 113 129 265 1060 1650 2660 9740
2026-05-01 02:30 7.71 827 30300 (2019) 19 (2000) 1800 49 64 113 129 265 1060 1650 2660 9740
2026-05-01 02:00 7.72 833 30300 (2019) 19 (2000) 1800 49 64 113 129 265 1060 1650 2660 9740
2026-05-01 01:30 7.74 845 30300 (2019) 19 (2000) 1800 49 64 113 129 265 1060 1650 2660 9740
2026-05-01 01:00 7.74 845 30300 (2019) 19 (2000) 1800 49 64 113 129 265 1060 1650 2660 9740
2026-05-01 00:30 7.76 857 30300 (2019) 19 (2000) 1800 49 64 113 129 265 1060 1650 2660 9740
2026-05-01 00:00 7.77 863 30300 (2019) 19 (2000) 1800 49 64 113 129 265 1060 1650 2660 9740
2026-04-30 23:30 7.78 869 30300 (2019) 19 (2000) 1800 49 64 113 129 265 1060 1650 2660 9740
2026-04-30 23:00 7.80 882 30300 (2019) 19 (2000) 1800 49 64 113 129 265 1060 1650 2660 9740
2026-04-30 22:30 7.82 894 48200 (2017) 20 (2000) 1550 50 61 106 126 267 1000 1560 4360 5920
2026-04-30 22:00 7.83 900 48200 (2017) 20 (2000) 1550 50 61 106 126 267 1000 1560 4360 5920
2026-04-30 21:30 7.85 913 48200 (2017) 20 (2000) 1550 50 61 106 126 267 1000 1560 4360 5920
2026-04-30 21:00 7.86 919 48200 (2017) 20 (2000) 1550 50 61 106 126 267 1000 1560 4360 5920
2026-04-30 20:30 7.88 932 48200 (2017) 20 (2000) 1550 50 61 106 126 267 1000 1560 4360 5920
2026-04-30 20:00 7.89 939 48200 (2017) 20 (2000) 1550 50 61 106 126 267 1000 1560 4360 5920
2026-04-30 19:30 7.91 952 48200 (2017) 20 (2000) 1550 50 61 106 126 267 1000 1560 4360 5920
2026-04-30 19:00 7.93 965 48200 (2017) 20 (2000) 1550 50 61 106 126 267 1000 1560 4360 5920
2026-04-30 18:30 7.95 978 48200 (2017) 20 (2000) 1550 50 61 106 126 267 1000 1560 4360 5920
2026-04-30 18:00 7.97 991 48200 (2017) 20 (2000) 1550 50 61 106 126 267 1000 1560 4360 5920
2026-04-30 17:30 7.98 998 48200 (2017) 20 (2000) 1550 50 61 106 126 267 1000 1560 4360 5920
2026-04-30 17:00 8.01 1020 48200 (2017) 20 (2000) 1550 50 61 106 126 267 1000 1560 4360 5920
2026-04-30 16:30 8.03 1030 48200 (2017) 20 (2000) 1550 50 61 106 126 267 1000 1560 4360 5920
2026-04-30 16:00 8.06 1050 48200 (2017) 20 (2000) 1550 50 61 106 126 267 1000 1560 4360 5920
2026-04-30 15:30 8.07 1060 48200 (2017) 20 (2000) 1550 50 61 106 126 267 1000 1560 4360 5920
2026-04-30 15:00 8.09 1070 48200 (2017) 20 (2000) 1550 50 61 106 126 267 1000 1560 4360 5920
2026-04-30 14:30 8.11 1090 48200 (2017) 20 (2000) 1550 50 61 106 126 267 1000 1560 4360 5920
2026-04-30 14:00 8.14 1110 48200 (2017) 20 (2000) 1550 50 61 106 126 267 1000 1560 4360 5920
2026-04-30 13:30 8.16 1120 48200 (2017) 20 (2000) 1550 50 61 106 126 267 1000 1560 4360 5920
2026-04-30 13:00 8.19 1140 48200 (2017) 20 (2000) 1550 50 61 106 126 267 1000 1560 4360 5920
2026-04-30 12:30 8.21 1160 48200 (2017) 20 (2000) 1550 50 61 106 126 267 1000 1560 4360 5920
2026-04-30 12:00 8.24 1180 48200 (2017) 20 (2000) 1550 50 61 106 126 267 1000 1560 4360 5920
2026-04-30 11:30 8.25 1190 48200 (2017) 20 (2000) 1550 50 61 106 126 267 1000 1560 4360 5920
2026-04-30 11:00 8.29 1220 48200 (2017) 20 (2000) 1550 50 61 106 126 267 1000 1560 4360 5920
2026-04-30 10:30 8.31 1230 48200 (2017) 20 (2000) 1550 50 61 106 126 267 1000 1560 4360 5920
2026-04-30 10:00 8.35 1260 48200 (2017) 20 (2000) 1550 50 61 106 126 267 1000 1560 4360 5920
2026-04-30 09:30 8.37 1280 48200 (2017) 20 (2000) 1550 50 61 106 126 267 1000 1560 4360 5920
2026-04-30 09:00 8.41 1310 48200 (2017) 20 (2000) 1550 50 61 106 126 267 1000 1560 4360 5920
2026-04-30 08:30 8.45 1340 48200 (2017) 20 (2000) 1550 50 61 106 126 267 1000 1560 4360 5920
2026-04-30 08:00 8.49 1370 48200 (2017) 20 (2000) 1550 50 61 106 126 267 1000 1560 4360 5920
2026-04-30 07:30 8.51 1390 48200 (2017) 20 (2000) 1550 50 61 106 126 267 1000 1560 4360 5920
2026-04-30 07:00 8.55 1420 48200 (2017) 20 (2000) 1550 50 61 106 126 267 1000 1560 4360 5920
2026-04-30 06:30 8.59 1460 48200 (2017) 20 (2000) 1550 50 61 106 126 267 1000 1560 4360 5920
2026-04-30 06:00 8.62 1480 48200 (2017) 20 (2000) 1550 50 61 106 126 267 1000 1560 4360 5920
2026-04-30 05:30 8.67 1530 48200 (2017) 20 (2000) 1550 50 61 106 126 267 1000 1560 4360 5920
2026-04-30 05:00 8.71 1560 48200 (2017) 20 (2000) 1550 50 61 106 126 267 1000 1560 4360 5920
2026-04-30 04:30 8.76 1600 48200 (2017) 20 (2000) 1550 50 61 106 126 267 1000 1560 4360 5920
2026-04-30 04:00 8.81 1650 48200 (2017) 20 (2000) 1550 50 61 106 126 267 1000 1560 4360 5920
2026-04-30 03:30 8.84 1680 48200 (2017) 20 (2000) 1550 50 61 106 126 267 1000 1560 4360 5920
2026-04-30 03:00 8.91 1740 48200 (2017) 20 (2000) 1550 50 61 106 126 267 1000 1560 4360 5920
2026-04-30 02:30 8.94 1770 48200 (2017) 20 (2000) 1550 50 61 106 126 267 1000 1560 4360 5920
2026-04-30 02:00 9.00 1820 48200 (2017) 20 (2000) 1550 50 61 106 126 267 1000 1560 4360 5920
2026-04-30 01:30 9.06 1880 48200 (2017) 20 (2000) 1550 50 61 106 126 267 1000 1560 4360 5920
2026-04-30 01:00 9.11 1930 48200 (2017) 20 (2000) 1550 50 61 106 126 267 1000 1560 4360 5920
2026-04-30 00:30 9.17 1990 48200 (2017) 20 (2000) 1550 50 61 106 126 267 1000 1560 4360 5920
2026-04-30 00:00 9.23 2050 48200 (2017) 20 (2000) 1550 50 61 106 126 267 1000 1560 4360 5920
2026-04-29 23:30 9.30 2100 48200 (2017) 20 (2000) 1550 50 61 106 126 267 1000 1560 4360 5920
2026-04-29 23:00 9.35 2130 48200 (2017) 20 (2000) 1550 50 61 106 126 267 1000 1560 4360 5920
2026-04-29 22:30 9.43 2180 21300 (1996) 23 (2000) 1270 52 60 109 138 287 820 1340 4320 6320
2026-04-29 22:00 9.50 2220 21300 (1996) 23 (2000) 1270 52 60 109 138 287 820 1340 4320 6320
2026-04-29 21:30 9.56 2260 21300 (1996) 23 (2000) 1270 52 60 109 138 287 820 1340 4320 6320
2026-04-29 21:00 9.65 2310 21300 (1996) 23 (2000) 1270 52 60 109 138 287 820 1340 4320 6320
2026-04-29 20:30 9.72 2360 21300 (1996) 23 (2000) 1270 52 60 109 138 287 820 1340 4320 6320
2026-04-29 20:00 9.79 2400 21300 (1996) 23 (2000) 1270 52 60 109 138 287 820 1340 4320 6320
2026-04-29 19:30 9.88 2460 21300 (1996) 23 (2000) 1270 52 60 109 138 287 820 1340 4320 6320
2026-04-29 19:00 9.94 2500 21300 (1996) 23 (2000) 1270 52 60 109 138 287 820 1340 4320 6320
2026-04-29 18:30 10.02 2550 21300 (1996) 23 (2000) 1270 52 60 109 138 287 820 1340 4320 6320
2026-04-29 18:00 10.08 2590 21300 (1996) 23 (2000) 1270 52 60 109 138 287 820 1340 4320 6320
2026-04-29 17:30 10.15 2640 21300 (1996) 23 (2000) 1270 52 60 109 138 287 820 1340 4320 6320
2026-04-29 17:00 10.21 2680 21300 (1996) 23 (2000) 1270 52 60 109 138 287 820 1340 4320 6320
2026-04-29 16:30 10.28 2730 21300 (1996) 23 (2000) 1270 52 60 109 138 287 820 1340 4320 6320
2026-04-29 16:00 10.35 2770 21300 (1996) 23 (2000) 1270 52 60 109 138 287 820 1340 4320 6320
2026-04-29 15:30 10.40 2810 21300 (1996) 23 (2000) 1270 52 60 109 138 287 820 1340 4320 6320
2026-04-29 15:00 10.45 2840 21300 (1996) 23 (2000) 1270 52 60 109 138 287 820 1340 4320 6320
2026-04-29 14:30 10.50 2870 21300 (1996) 23 (2000) 1270 52 60 109 138 287 820 1340 4320 6320
2026-04-29 14:00 10.56 2910 21300 (1996) 23 (2000) 1270 52 60 109 138 287 820 1340 4320 6320
2026-04-29 13:30 10.59 2930 21300 (1996) 23 (2000) 1270 52 60 109 138 287 820 1340 4320 6320
2026-04-29 13:00 10.63 2960 21300 (1996) 23 (2000) 1270 52 60 109 138 287 820 1340 4320 6320
2026-04-29 12:30 10.67 2990 21300 (1996) 23 (2000) 1270 52 60 109 138 287 820 1340 4320 6320
2026-04-29 12:00 10.71 3020 21300 (1996) 23 (2000) 1270 52 60 109 138 287 820 1340 4320 6320
2026-04-29 11:30 10.74 3040 21300 (1996) 23 (2000) 1270 52 60 109 138 287 820 1340 4320 6320
2026-04-29 11:00 10.78 3070 21300 (1996) 23 (2000) 1270 52 60 109 138 287 820 1340 4320 6320
2026-04-29 10:30 10.80 3080 21300 (1996) 23 (2000) 1270 52 60 109 138 287 820 1340 4320 6320
2026-04-29 10:00 10.85 3110 21300 (1996) 23 (2000) 1270 52 60 109 138 287 820 1340 4320 6320
2026-04-29 09:30 10.88 3130 21300 (1996) 23 (2000) 1270 52 60 109 138 287 820 1340 4320 6320
2026-04-29 09:00 10.92 3160 21300 (1996) 23 (2000) 1270 52 60 109 138 287 820 1340 4320 6320
2026-04-29 08:30 10.96 3190 21300 (1996) 23 (2000) 1270 52 60 109 138 287 820 1340 4320 6320
2026-04-29 08:00 11.01 3230 21300 (1996) 23 (2000) 1270 52 60 109 138 287 820 1340 4320 6320
2026-04-29 07:30 11.05 3250 21300 (1996) 23 (2000) 1270 52 60 109 138 287 820 1340 4320 6320
2026-04-29 07:00 11.11 3300 21300 (1996) 23 (2000) 1270 52 60 109 138 287 820 1340 4320 6320
2026-04-29 06:30 11.14 3320 21300 (1996) 23 (2000) 1270 52 60 109 138 287 820 1340 4320 6320
2026-04-29 06:00 11.18 3350 21300 (1996) 23 (2000) 1270 52 60 109 138 287 820 1340 4320 6320
2026-04-29 05:30 11.22 3370 21300 (1996) 23 (2000) 1270 52 60 109 138 287 820 1340 4320 6320
2026-04-29 05:00 11.29 3430 21300 (1996) 23 (2000) 1270 52 60 109 138 287 820 1340 4320 6320
2026-04-29 04:30 11.34 3460 21300 (1996) 23 (2000) 1270 52 60 109 138 287 820 1340 4320 6320
2026-04-29 04:00 11.40 3500 21300 (1996) 23 (2000) 1270 52 60 109 138 287 820 1340 4320 6320
2026-04-29 03:30 11.46 3550 21300 (1996) 23 (2000) 1270 52 60 109 138 287 820 1340 4320 6320
2026-04-29 03:00 11.54 3610 21300 (1996) 23 (2000) 1270 52 60 109 138 287 820 1340 4320 6320
2026-04-29 02:30 11.62 3660 21300 (1996) 23 (2000) 1270 52 60 109 138 287 820 1340 4320 6320
2026-04-29 02:00 11.72 3740 21300 (1996) 23 (2000) 1270 52 60 109 138 287 820 1340 4320 6320
2026-04-29 01:30 11.82 3810 21300 (1996) 23 (2000) 1270 52 60 109 138 287 820 1340 4320 6320
2026-04-29 01:00 11.94 3900 21300 (1996) 23 (2000) 1270 52 60 109 138 287 820 1340 4320 6320
2026-04-29 00:30 12.06 3990 21300 (1996) 23 (2000) 1270 52 60 109 138 287 820 1340 4320 6320
2026-04-29 00:00 12.20 4100 21300 (1996) 23 (2000) 1270 52 60 109 138 287 820 1340 4320 6320
2026-04-28 23:30 12.35 4210 21300 (1996) 23 (2000) 1270 52 60 109 138 287 820 1340 4320 6320
2026-04-28 23:00 12.55 4370 21300 (1996) 23 (2000) 1270 52 60 109 138 287 820 1340 4320 6320

A total of 169 rows are displayed for years 1922 through 2025.